Latest Weather Observations for Nambour

IDQ60901

Issued at 7:01 pm EST Saturday 25 February 2017 (issued every 10 minutes, with the page automatically refreshed every 10 minutes)

About weather observations | Map of Brisbane area stations | Latest observations for Brisbane area | Other Formats
Station Details ID: 040988 Name: NAMBOUR DAFF - HILLSIDE Lat: -26.64 Lon: 152.94 Height: 53.24 m
Data from the previous 72 hours. | See also: Recent months at Nambour
Date/Time
EST
Temp
°C
App
Temp
°C
Dew
Point
°C
Rel
Hum
%
Delta-T
°C
Wind Press
QNH
hPa
Press
MSL
hPa
Rain since
9am
mm
Dir  Spd
km/h
Gust
km/h
Spd
kts
Gust
kts
25/07:00pm 25.2 26.6 17.4 62 4.9 SE 6 11 3 6 - - 0.0
25/06:30pm 25.4 26.9 17.6 62 4.9 ESE 6 15 3 8 - - 0.0
25/06:00pm 25.7 26.4 17.9 62 4.9 E 11 19 6 10 - - 0.0
25/05:30pm 26.5 27.8 17.6 58 5.6 ESE 7 13 4 7 - - 0.0
25/05:00pm 27.3 28.1 16.3 51 6.8 ESE 7 20 4 11 - - 0.0
25/04:30pm 27.7 26.7 15.7 48 7.4 E 15 24 8 13 - - 0.0
25/04:00pm 27.7 27.2 15.0 45 7.7 E 11 17 6 9 - - 0.0
25/03:30pm 28.7 27.8 14.9 43 8.4 ENE 13 24 7 13 - - 0.0
25/03:00pm 28.8 28.0 13.9 40 8.9 E 11 19 6 10 - - 0.0
25/02:30pm 28.7 27.5 14.1 40 8.8 E 13 24 7 13 - - 0.0
25/02:00pm 29.8 29.0 15.1 40 9.0 E 13 30 7 16 - - 0.0
25/01:30pm 28.8 27.6 13.9 40 8.9 E 13 24 7 13 - - 0.0
25/01:00pm 29.2 29.0 14.6 41 8.9 E 9 20 5 11 - - 0.0
25/12:30pm 28.6 27.9 14.4 41 8.6 ESE 11 17 6 9 - - 0.0
25/12:00pm 28.8 28.8 14.2 40 8.8 ESE 7 15 4 8 - - 0.0
25/11:30am 28.0 28.5 13.9 42 8.4 E 4 13 2 7 - - 0.0
25/11:00am 29.1 28.6 14.9 42 8.7 E 11 24 6 13 - - 0.0
25/10:30am 27.9 27.0 13.8 42 8.4 ESE 11 24 6 13 - - 0.0
25/10:00am 28.4 29.0 15.3 45 8.0 E 6 15 3 8 - - 0.0
25/09:30am 27.1 28.0 16.1 51 6.8 ESE 6 11 3 6 - - 0.0
25/09:00am 26.8 27.2 15.2 49 7.0 SSE 7 19 4 10 - - 0.0
25/08:30am 25.4 25.8 15.4 54 6.1 ESE 7 20 4 11 - - 0.0
25/08:00am 24.6 25.3 15.5 57 5.5 ESE 6 11 3 6 - - 0.0
25/07:30am 24.3 25.2 16.0 60 5.1 SSW 6 13 3 7 - - 0.0
25/07:00am 23.3 25.0 17.1 68 3.8 W 4 7 2 4 - - 0.0
25/06:30am 21.0 23.4 17.0 78 2.4 CALM 0 4 0 2 - - 0.0
25/06:00am 20.5 22.5 16.9 80 2.2 W 2 6 1 3 - - 0.0
25/05:30am 20.1 22.4 16.7 81 2.1 CALM 0 2 0 1 - - 0.0
25/05:00am 19.7 21.9 16.5 82 1.9 CALM 0 2 0 1 - - 0.0
25/04:30am 19.4 21.4 16.1 81 2.0 CALM 0 0 0 0 - - 0.0
25/04:00am 19.9 22.0 16.3 80 2.2 CALM 0 0 0 0 - - 0.0
25/03:30am 19.9 22.0 16.3 80 2.2 CALM 0 4 0 2 - - 0.0
25/03:00am 20.1 22.4 16.7 81 2.1 CALM 0 2 0 1 - - 0.0
25/02:30am 20.1 22.3 16.5 80 2.2 CALM 0 0 0 0 - - 0.0
25/02:00am 21.2 23.3 17.2 78 2.5 SSW 2 6 1 3 - - 0.0
25/01:30am 20.1 22.5 16.9 82 1.9 CALM 0 0 0 0 - - 0.0
25/01:00am 20.0 22.4 17.0 83 1.8 CALM 0 0 0 0 - - 0.0
25/12:30am 20.2 22.6 17.0 82 1.9 CALM 0 0 0 0 - - 0.0
25/12:00am 20.3 22.7 16.9 81 2.1 CALM 0 0 0 0 - - 0.0
 
Date/Time
EST
Temp
°C
App
Temp
°C
Dew
Point
°C
Rel
Hum
%
Delta-T
°C
Wind Press
QNH
hPa
Press
MSL
hPa
Rain since
9am
mm
Dir  Spd
km/h
Gust
km/h
Spd
kts
Gust
kts
24/11:30pm 21.2 23.7 17.2 78 2.5 CALM 0 0 0 0 - - 0.0
24/11:00pm 21.2 23.7 17.2 78 2.5 CALM 0 0 0 0 - - 0.0
24/10:30pm 21.3 23.8 17.3 78 2.5 CALM 0 0 0 0 - - 0.0
24/10:00pm 21.8 24.4 17.4 76 2.7 CALM 0 0 0 0 - - 0.0
24/09:30pm 21.9 24.5 17.5 76 2.7 CALM 0 0 0 0 - - 0.0
24/09:00pm 22.1 24.7 17.5 75 2.8 CALM 0 4 0 2 - - 0.0
24/08:30pm 22.4 25.0 17.5 74 3.0 CALM 0 0 0 0 - - 0.0
24/08:00pm 22.8 25.3 17.3 71 3.4 CALM 0 0 0 0 - - 0.0
24/07:30pm 23.1 25.6 17.3 70 3.6 CALM 0 2 0 1 - - 0.0
24/07:00pm 24.1 25.9 17.4 66 4.2 SE 4 7 2 4 - - 0.0
24/06:30pm 24.7 26.1 17.4 64 4.6 SE 6 9 3 5 - - 0.0
24/06:00pm 25.3 26.4 17.2 61 5.0 ESE 7 15 4 8 - - 0.0
24/05:30pm 26.0 26.7 17.1 58 5.5 ESE 9 17 5 9 - - 0.0
24/05:00pm 26.8 27.5 17.0 55 6.1 ESE 9 15 5 8 - - 0.0
24/04:30pm 27.4 27.4 17.3 54 6.3 E 13 24 7 13 - - 0.0
24/04:00pm 27.9 27.5 17.1 51 6.8 E 15 24 8 13 - - 0.0
24/03:30pm 28.7 29.3 17.6 51 7.0 E 11 20 6 11 - - 0.0
24/03:00pm 28.0 27.4 16.6 50 7.1 E 15 30 8 16 - - 0.0
24/02:30pm 28.5 28.2 16.4 48 7.5 E 13 20 7 11 - - 0.0
24/02:00pm 29.9 30.0 15.6 42 8.8 ESE 9 19 5 10 - - 0.0
24/01:30pm 29.9 28.9 15.6 42 8.8 E 15 26 8 14 - - 0.0
24/01:00pm 28.8 29.1 16.0 45 7.9 E 9 19 5 10 - - 0.0
24/12:30pm 29.4 28.4 15.5 43 8.6 E 15 24 8 13 - - 0.0
24/12:00pm 28.6 27.5 15.2 44 8.2 E 15 26 8 14 - - 0.0
24/11:30am 28.3 28.6 14.9 44 8.1 ESE 7 13 4 7 - - 0.0
24/11:00am 28.3 28.6 15.9 47 7.7 ESE 9 15 5 8 - - 0.0
24/10:30am 27.9 29.0 16.5 50 7.1 SE 6 13 3 7 - - 0.0
24/10:00am 27.5 27.4 16.1 49 7.0 ESE 11 26 6 14 - - 0.0
24/09:30am 27.0 27.5 16.6 53 6.5 ESE 9 20 5 11 - - 0.0
24/09:00am 26.5 27.3 17.3 57 5.8 ESE 9 19 5 10 - - 0.0
24/08:30am 25.7 26.5 16.3 56 5.8 SE 7 17 4 9 - - 0.0
24/08:00am 25.8 27.0 16.9 58 5.5 SE 6 17 3 9 - - 0.0
24/07:30am 23.5 25.9 17.9 71 3.5 E 2 6 1 3 - - 0.0
24/07:00am 22.1 24.8 17.7 76 2.7 CALM 0 0 0 0 - - 0.0
24/06:30am 21.2 23.5 17.8 81 2.1 WSW 2 4 1 2 - - 0.0
24/06:00am 19.8 22.0 16.6 82 1.9 CALM 0 2 0 1 - - 0.0
24/05:30am 19.8 22.0 16.4 81 2.0 CALM 0 0 0 0 - - 0.0
24/05:00am 20.1 22.4 16.7 81 2.1 CALM 0 0 0 0 - - 0.0
24/04:30am 20.1 22.5 16.9 82 1.9 CALM 0 0 0 0 - - 0.0
24/04:00am 19.2 21.2 15.9 81 2.0 CALM 0 0 0 0 - - 0.0
24/03:30am 19.8 22.0 16.4 81 2.0 CALM 0 0 0 0 - - 0.0
24/03:00am 19.6 21.6 16.1 80 2.1 CALM 0 0 0 0 - - 0.0
24/02:30am 20.3 22.3 16.1 77 2.5 CALM 0 0 0 0 - - 0.0
24/02:00am 20.5 22.5 16.1 76 2.6 CALM 0 0 0 0 - - 0.0
24/01:30am 20.6 22.8 16.4 77 2.5 CALM 0 0 0 0 - - 0.0
24/01:00am 21.1 23.4 16.7 76 2.7 CALM 0 0 0 0 - - 0.0
24/12:30am 21.4 23.4 17.0 76 2.7 WNW 2 6 1 3 - - 0.0
24/12:00am 21.5 23.6 17.1 76 2.7 WSW 2 4 1 2 - - 0.0
 
Date/Time
EST
Temp
°C
App
Temp
°C
Dew
Point
°C
Rel
Hum
%
Delta-T
°C
Wind Press
QNH
hPa
Press
MSL
hPa
Rain since
9am
mm
Dir  Spd
km/h
Gust
km/h
Spd
kts
Gust
kts
23/11:30pm 21.9 23.8 16.8 73 3.1 WSW 2 4 1 2 - - 0.0
23/11:00pm 22.8 25.4 17.5 72 3.3 CALM 0 2 0 1 - - 0.0
23/10:30pm 22.6 25.2 17.5 73 3.2 CALM 0 0 0 0 - - 0.0
23/10:00pm 22.7 25.3 17.6 73 3.2 CALM 0 0 0 0 - - 0.0
23/09:30pm 22.8 25.5 17.7 73 3.2 CALM 0 0 0 0 - - 0.0
23/09:00pm 22.9 25.5 17.4 71 3.4 CALM 0 0 0 0 - - 0.0
23/08:30pm 22.9 25.5 17.6 72 3.3 CALM 0 0 0 0 - - 0.0
23/08:00pm 23.2 25.7 17.2 69 3.7 CALM 0 0 0 0 - - 0.0
23/07:30pm 24.0 25.8 17.3 66 4.2 SSE 4 7 2 4 - - 0.0
23/07:00pm 24.7 26.6 17.7 65 4.4 ESE 4 11 2 6 - - 0.0
23/06:30pm 25.0 26.8 17.5 63 4.7 ESE 4 7 2 4 - - 0.0
23/06:00pm 25.6 26.8 17.3 60 5.2 ESE 7 17 4 9 - - 0.0
23/05:30pm 25.9 26.3 17.3 59 5.4 E 11 20 6 11 - - 0.0
23/05:00pm 26.9 27.4 17.4 56 6.0 ESE 11 24 6 13 - - 0.0
23/04:30pm 27.0 27.3 16.9 54 6.3 ESE 11 24 6 13 - - 0.0
23/04:00pm 27.1 26.8 15.5 49 7.1 ESE 11 20 6 11 - - 0.0
23/03:30pm 27.9 28.4 15.5 46 7.6 ESE 7 20 4 11 - - 0.0
23/03:00pm 27.9 28.0 14.5 44 8.1 ESE 7 17 4 9 - - 0.0
23/02:30pm 28.9 29.5 15.8 45 8.1 ESE 7 13 4 7 - - 0.0
23/02:00pm 27.6 26.9 14.3 44 8.0 E 11 20 6 11 - - 0.0
23/01:30pm 28.1 27.8 14.3 42 8.3 ESE 9 20 5 11 - - 0.0
23/01:00pm 27.8 27.4 15.1 46 7.7 ESE 11 19 6 10 - - 0.0
23/12:30pm 27.0 27.6 15.4 49 7.1 ESE 6 13 3 7 - - 0.0
23/12:00pm 27.1 27.9 15.8 50 6.9 ESE 6 13 3 7 - - 0.0
23/11:30am 26.5 27.0 15.5 50 6.7 ESE 7 15 4 8 - - 0.0
23/11:00am 26.9 27.4 15.6 50 6.9 SE 7 17 4 9 - - 0.0
23/10:30am 26.7 27.4 16.0 52 6.6 ESE 7 15 4 8 - - 0.0
23/10:00am 26.9 27.3 16.2 52 6.6 ESE 9 24 5 13 - - 0.0
23/09:30am 26.5 26.6 15.5 50 6.7 ESE 9 15 5 8 - - 0.0
23/09:00am 26.7 27.3 15.7 51 6.7 E 7 17 4 9 - - 0.0
23/08:30am 25.3 25.4 14.4 50 6.5 SE 7 15 4 8 - - 0.0
23/08:00am 25.4 25.4 15.1 53 6.2 ESE 9 17 5 9 - - 0.0
23/07:30am 24.8 25.9 15.7 57 5.5 SE 4 13 2 7 - - 0.0
23/07:00am 23.0 25.0 16.1 65 4.2 CALM 0 6 0 3 - - 0.0
23/06:30am 21.3 23.4 16.3 73 3.0 CALM 0 0 0 0 - - 0.0
23/06:00am 19.8 21.7 15.7 77 2.4 CALM 0 2 0 1 - - 0.0
23/05:30am 19.7 21.5 15.6 77 2.4 CALM 0 0 0 0 - - 0.0
23/05:00am 20.2 22.0 15.4 74 2.8 CALM 0 0 0 0 - - 0.0
23/04:30am 20.5 22.3 15.5 73 3.0 CALM 0 2 0 1 - - 0.0
23/04:00am 20.9 22.7 15.4 71 3.3 CALM 0 2 0 1 - - 0.0
23/03:30am 21.1 22.8 15.2 69 3.5 CALM 0 0 0 0 - - 0.0
23/03:00am 21.3 23.1 15.6 70 3.4 CALM 0 4 0 2 - - 0.0
23/02:30am 20.9 22.4 15.7 72 3.1 W 2 6 1 3 - - 0.0
23/02:00am 20.5 21.9 15.3 72 3.1 SW 2 4 1 2 - - 0.0
23/01:30am 20.7 22.4 15.3 71 3.2 CALM 0 0 0 0 - - 0.0
23/01:00am 20.9 22.3 15.4 71 3.3 WSW 2 4 1 2 - - 0.0
23/12:30am 21.1 22.9 15.4 70 3.4 CALM 0 2 0 1 - - 0.0
23/12:00am 21.1 22.5 15.4 70 3.4 W 2 4 1 2 - - 0.0
 
Date/Time
EST
Temp
°C
App
Temp
°C
Dew
Point
°C
Rel
Hum
%
Delta-T
°C
Wind Press
QNH
hPa
Press
MSL
hPa
Rain since
9am
mm
Dir  Spd
km/h
Gust
km/h
Spd
kts
Gust
kts
22/11:30pm 21.4 23.2 15.5 69 3.5 CALM 0 0 0 0 - - 0.0
22/11:00pm 21.8 23.0 15.9 69 3.6 WSW 4 6 2 3 - - 0.0
22/10:30pm 22.1 23.9 15.5 66 4.0 CALM 0 0 0 0 - - 0.0
22/10:00pm 23.0 24.4 15.3 62 4.6 WSW 2 7 1 4 - - 0.0
22/09:30pm 23.1 24.4 15.2 61 4.7 SSE 2 6 1 3 - - 0.0
22/09:00pm 24.0 25.1 15.5 59 5.1 SE 4 9 2 5 - - 0.0
22/08:30pm 24.2 25.0 15.9 59 5.0 SE 6 15 3 8 - - 0.0
22/08:00pm 24.4 25.2 15.9 59 5.2 ESE 6 13 3 7 - - 0.0
22/07:30pm 24.6 25.9 16.1 59 5.2 ESE 4 9 2 5 - - 0.0

Latest Capital City Observations: Canberra | Sydney | Melbourne | Brisbane | Adelaide | Perth | Hobart | Darwin

Other Formats:

Comma delimited format used in spreadsheet applications
http://www.bom.gov.au/fwo/IDQ60901/IDQ60901.95572.axf

JavaScript Object Notation format (JSON) in row-major order
http://www.bom.gov.au/fwo/IDQ60901/IDQ60901.95572.json